createdAt,value
2022-08-09T00:01:54.583Z,102145.69
2022-08-09T00:04:34.598Z,102142.56
2022-08-09T00:07:07.771Z,102139.59
2022-08-09T00:09:39.574Z,102141.03
2022-08-09T00:12:09.637Z,102147.53
2022-08-09T00:14:55.936Z,102146.94
2022-08-09T00:18:07.675Z,102148.09
2022-08-09T00:20:14.357Z,102148.44
2022-08-09T00:22:47.119Z,102155.44
2022-08-09T00:25:23.106Z,102147.72
2022-08-09T00:27:52.118Z,102149.91
2022-08-09T00:30:25.933Z,102145.88
2022-08-09T00:32:55.624Z,102143.16
2022-08-09T00:35:24.091Z,102144.72
2022-08-09T00:37:52.471Z,102144.66
2022-08-09T00:40:22.068Z,102133.34
2022-08-09T00:44:14.089Z,102131.81
2022-08-09T00:45:53.813Z,102132.03
2022-08-09T00:48:22.719Z,102141.16
2022-08-09T00:50:52.224Z,102138.09
2022-08-09T00:53:23.941Z,102134.88
2022-08-09T00:56:05.769Z,102144.25
2022-08-09T00:58:39.178Z,102139.19
2022-08-09T01:01:20.793Z,102139.47
2022-08-09T01:04:03.539Z,102133.75
2022-08-09T01:06:54.648Z,102137.13
2022-08-09T01:10:07.161Z,102138.91
2022-08-09T01:12:45.717Z,102137.50
2022-08-09T01:15:24.616Z,102137.94
2022-08-09T01:18:01.914Z,102134.59
2022-08-09T01:21:06.184Z,102132.66
2022-08-09T01:24:25.787Z,102137.72
2022-08-09T01:27:09.595Z,102134.22
2022-08-09T01:29:56.588Z,102139.19
2022-08-09T01:32:48.700Z,102138.28
2022-08-09T01:35:38.319Z,102137.28
2022-08-09T01:38:15.838Z,102132.66
2022-08-09T01:41:09.483Z,102137.50
2022-08-09T01:43:51.013Z,102135.09
2022-08-09T01:46:31.725Z,102135.53
2022-08-09T01:49:18.151Z,102143.09
2022-08-09T01:51:55.665Z,102140.84
2022-08-09T01:54:32.595Z,102141.16
2022-08-09T01:57:14.978Z,102136.34
2022-08-09T01:59:51.624Z,102138.97
2022-08-09T02:02:31.138Z,102140.06
2022-08-09T02:05:15.139Z,102145.31
2022-08-09T02:08:38.628Z,102146.88
2022-08-09T02:10:53.880Z,102140.47
2022-08-09T02:13:40.221Z,102153.25
2022-08-09T02:16:12.645Z,102143.50
2022-08-09T02:18:48.003Z,102140.88
2022-08-09T02:21:22.310Z,102144.50
2022-08-09T02:23:57.753Z,102143.69
2022-08-09T02:26:30.234Z,102151.94
2022-08-09T02:29:06.772Z,102143.00
2022-08-09T02:31:43.241Z,102147.94
2022-08-09T02:34:40.193Z,102144.44
2022-08-09T02:37:17.187Z,102141.44
2022-08-09T02:39:55.059Z,102140.13
2022-08-09T02:42:39.567Z,102149.09
2022-08-09T02:45:15.303Z,102148.66
2022-08-09T02:47:59.342Z,102143.94
2022-08-09T02:50:45.466Z,102140.06
2022-08-09T02:53:38.328Z,102144.06
2022-08-09T02:56:14.001Z,102147.72
2022-08-09T02:58:44.483Z,102155.38
2022-08-09T03:01:29.069Z,102157.06
2022-08-09T03:04:18.396Z,102171.75
2022-08-09T03:06:49.164Z,102168.84
2022-08-09T03:09:20.511Z,102164.03
2022-08-09T03:12:05.993Z,102160.03
2022-08-09T03:14:41.479Z,102162.53
2022-08-09T03:17:16.369Z,102157.72
2022-08-09T03:19:58.027Z,102144.63
2022-08-09T03:22:42.259Z,102155.47
2022-08-09T03:25:25.695Z,102149.66
2022-08-09T03:28:11.322Z,102150.00
2022-08-09T03:30:41.245Z,102157.50
2022-08-09T03:33:19.121Z,102157.94
2022-08-09T03:36:13.845Z,102159.72
2022-08-09T03:38:43.564Z,102158.06
2022-08-09T03:41:16.264Z,102168.84
2022-08-09T03:44:03.341Z,102173.88
2022-08-09T03:46:36.933Z,102166.78
2022-08-09T03:49:08.090Z,102172.28
2022-08-09T03:51:58.615Z,102175.91
2022-08-09T03:54:39.707Z,102177.69
2022-08-09T03:57:20.363Z,102175.31
2022-08-09T03:59:56.039Z,102181.84
2022-08-09T04:02:32.325Z,102176.63
2022-08-09T04:05:06.393Z,102184.75
2022-08-09T04:07:52.404Z,102182.16
2022-08-09T04:10:29.162Z,102188.13
2022-08-09T04:13:04.503Z,102186.38
2022-08-09T04:16:17.623Z,102197.00
2022-08-09T04:18:22.256Z,102186.75
2022-08-09T04:20:53.327Z,102181.72
2022-08-09T04:23:23.440Z,102187.06
2022-08-09T04:25:55.705Z,102190.66
2022-08-09T04:28:33.429Z,102196.41
2022-08-09T04:31:09.128Z,102196.09
2022-08-09T04:33:51.847Z,102191.69
2022-08-09T04:36:25.736Z,102199.97
2022-08-09T04:38:56.100Z,102199.25
2022-08-09T04:41:33.283Z,102208.13
2022-08-09T04:44:06.289Z,102210.47
2022-08-09T04:46:37.799Z,102213.63
2022-08-09T04:49:40.309Z,102209.06
2022-08-09T04:52:21.867Z,102202.00
2022-08-09T04:55:04.306Z,102215.22
2022-08-09T04:57:54.388Z,102215.09
2022-08-09T05:00:24.756Z,102219.88
2022-08-09T05:03:30.597Z,102228.59
2022-08-09T05:05:51.967Z,102230.75
2022-08-09T05:08:33.652Z,102226.72
2022-08-09T05:11:02.957Z,102227.16
2022-08-09T05:13:33.249Z,102232.00
2022-08-09T05:16:02.419Z,102232.69
2022-08-09T05:18:42.265Z,102235.06
2022-08-09T05:21:22.861Z,102230.34
2022-08-09T05:23:58.084Z,102236.69
2022-08-09T05:26:37.523Z,102242.22
2022-08-09T05:29:17.433Z,102232.53
2022-08-09T05:31:56.665Z,102239.59
2022-08-09T05:34:30.998Z,102240.59
2022-08-09T05:37:11.258Z,102239.47
2022-08-09T05:39:43.128Z,102245.06
2022-08-09T05:42:17.758Z,102245.25
2022-08-09T05:44:52.646Z,102248.81
2022-08-09T05:47:24.716Z,102253.34
2022-08-09T05:50:30.975Z,102250.44
2022-08-09T05:52:44.606Z,102251.72
2022-08-09T05:55:24.032Z,102252.66
2022-08-09T05:57:57.441Z,102253.91
2022-08-09T06:00:32.878Z,102253.84
2022-08-09T06:03:04.090Z,102252.13
2022-08-09T06:05:57.712Z,102250.19
2022-08-09T06:08:27.659Z,102253.47
2022-08-09T06:10:58.127Z,102253.41
2022-08-09T06:13:28.617Z,102259.09
2022-08-09T06:16:04.810Z,102254.78
2022-08-09T06:18:34.915Z,102262.84
2022-08-09T06:21:06.499Z,102260.81
2022-08-09T06:23:57.357Z,102254.91
2022-08-09T06:26:28.283Z,102265.59
2022-08-09T06:29:00.087Z,102265.94
2022-08-09T06:31:40.094Z,102267.88
2022-08-09T06:34:26.188Z,102268.41
2022-08-09T06:36:59.827Z,102278.50
2022-08-09T06:39:48.164Z,102285.16
2022-08-09T06:42:24.532Z,102284.50
2022-08-09T06:45:00.302Z,102282.06
2022-08-09T06:47:39.809Z,102294.19
2022-08-09T06:50:14.330Z,102288.56
2022-08-09T06:52:48.886Z,102285.47
2022-08-09T06:55:23.022Z,102285.34
2022-08-09T06:58:03.583Z,102282.66
2022-08-09T07:00:51.956Z,102292.25
2022-08-09T07:03:28.496Z,102285.97
2022-08-09T07:06:04.532Z,102287.22
2022-08-09T07:08:37.396Z,102289.09
2022-08-09T07:11:12.447Z,102287.38
2022-08-09T07:13:45.123Z,102300.09
2022-08-09T07:16:39.059Z,102295.16
2022-08-09T07:19:15.616Z,102291.28
2022-08-09T07:21:56.020Z,102299.16
2022-08-09T07:24:31.935Z,102297.91
2022-08-09T07:27:33.572Z,102299.31
2022-08-09T07:30:01.752Z,102302.91
2022-08-09T07:32:32.402Z,102302.47
2022-08-09T07:35:10.847Z,102308.97
2022-08-09T07:37:45.709Z,102298.09
2022-08-09T07:40:18.496Z,102302.63
2022-08-09T07:42:59.963Z,102308.31
2022-08-09T07:45:37.350Z,102303.03
2022-08-09T07:48:25.836Z,102302.84
2022-08-09T07:51:09.687Z,102300.13
2022-08-09T07:54:05.263Z,102305.75
2022-08-09T07:56:44.702Z,102301.28
2022-08-09T07:59:25.189Z,102301.59
2022-08-09T08:02:06.723Z,102306.97
2022-08-09T08:04:37.856Z,102303.88
2022-08-09T08:07:15.139Z,102317.19
2022-08-09T08:10:08.277Z,102312.00
2022-08-09T08:12:45.526Z,102306.56
2022-08-09T08:15:18.622Z,102313.69
2022-08-09T08:17:58.261Z,102307.03
2022-08-09T08:20:32.466Z,102312.53
2022-08-09T08:23:16.008Z,102301.91
2022-08-09T08:25:53.972Z,102307.94
2022-08-09T08:28:35.389Z,102297.63
2022-08-09T08:31:14.222Z,102306.84
2022-08-09T08:33:53.785Z,102304.53
2022-08-09T08:36:29.690Z,102308.94
2022-08-09T08:39:00.200Z,102303.75
2022-08-09T08:41:51.112Z,102305.09
2022-08-09T08:44:26.864Z,102298.47
2022-08-09T08:47:00.090Z,102298.16
2022-08-09T08:49:46.418Z,102301.31
2022-08-09T08:52:52.853Z,102299.28
2022-08-09T08:55:10.327Z,102298.94
2022-08-09T08:57:38.674Z,102304.13
2022-08-09T09:00:16.819Z,102310.94
2022-08-09T09:02:52.819Z,102301.25
2022-08-09T09:05:32.914Z,102305.81
2022-08-09T09:08:29.694Z,102307.41
2022-08-09T09:11:06.020Z,102308.00
2022-08-09T09:13:55.383Z,102301.69
2022-08-09T09:16:35.115Z,102302.69
2022-08-09T09:19:37.256Z,102299.72
2022-08-09T09:22:15.867Z,102312.38
2022-08-09T09:26:00.266Z,102312.22
2022-08-09T09:28:06.306Z,102312.03
2022-08-09T09:30:52.259Z,102307.06
2022-08-09T09:33:20.906Z,102302.84
2022-08-09T09:36:01.585Z,102306.44
2022-08-09T09:38:58.128Z,102301.69
2022-08-09T09:41:32.710Z,102295.66
2022-08-09T09:44:12.463Z,102304.81
2022-08-09T09:46:45.833Z,102299.53
2022-08-09T09:49:23.539Z,102293.34
2022-08-09T09:52:16.640Z,102289.34
2022-08-09T09:55:28.188Z,102290.50
2022-08-09T09:58:15.535Z,102292.09
2022-08-09T10:00:59.051Z,102288.09
2022-08-09T10:03:38.223Z,102289.25
2022-08-09T10:06:09.007Z,102285.09
2022-08-09T10:08:54.950Z,102286.41
2022-08-09T10:12:00.588Z,102288.22
2022-08-09T10:14:33.058Z,102283.09
2022-08-09T10:17:39.671Z,102279.56
2022-08-09T10:20:05.322Z,102274.03
2022-08-09T10:22:39.417Z,102272.53
2022-08-09T10:25:11.827Z,102272.13
2022-08-09T10:27:57.272Z,102274.59
2022-08-09T10:32:07.132Z,102267.63
2022-08-09T10:34:04.619Z,102272.72
2022-08-09T10:36:09.688Z,102261.38
2022-08-09T10:38:56.912Z,102266.06
2022-08-09T10:41:28.440Z,102252.44
2022-08-09T10:43:59.766Z,102257.09
2022-08-09T10:48:12.291Z,102254.47
2022-08-09T10:50:27.227Z,102244.81
2022-08-09T10:53:19.360Z,102252.38
2022-08-09T10:55:58.523Z,102260.97
2022-08-09T10:58:37.466Z,102257.69
2022-08-09T11:03:15.705Z,102258.59
2022-08-09T11:04:30.777Z,102261.31
2022-08-09T11:07:01.206Z,102251.72
2022-08-09T11:09:50.869Z,102261.72
2022-08-09T11:12:30.265Z,102244.97
2022-08-09T11:15:24.342Z,102255.88
2022-08-09T11:18:02.965Z,102247.69
2022-08-09T11:20:47.568Z,102252.16
2022-08-09T11:23:23.864Z,102251.66
2022-08-09T11:25:54.860Z,102240.44
2022-08-09T11:28:38.731Z,102252.72
2022-08-09T11:31:49.906Z,102251.59
2022-08-09T11:34:43.265Z,102240.63
2022-08-09T11:37:31.320Z,102242.44
2022-08-09T11:40:17.982Z,102237.56
2022-08-09T11:42:48.751Z,102241.28
2022-08-09T11:45:43.219Z,102248.75
2022-08-09T11:48:18.853Z,102241.81
2022-08-09T11:51:21.269Z,102250.03
2022-08-09T11:54:01.767Z,102242.19
2022-08-09T11:56:41.706Z,102247.50
2022-08-09T11:59:30.539Z,102241.06
2022-08-09T12:02:18.215Z,102238.75
2022-08-09T12:04:54.606Z,102240.41
2022-08-09T12:07:41.540Z,102238.72
2022-08-09T12:10:31.995Z,102230.53
2022-08-09T12:13:03.774Z,102235.84
2022-08-09T12:15:52.577Z,102226.75
2022-08-09T12:18:29.790Z,102229.03
2022-08-09T12:21:03.282Z,102224.69
2022-08-09T12:23:47.866Z,102232.38
2022-08-09T12:26:26.006Z,102231.72
2022-08-09T12:29:00.216Z,102238.56
2022-08-09T12:31:58.953Z,102230.19
2022-08-09T12:34:38.271Z,102230.25
2022-08-09T12:37:23.672Z,102228.13
2022-08-09T12:40:08.746Z,102227.50
2022-08-09T12:42:43.191Z,102231.19
2022-08-09T12:45:33.484Z,102229.59
2022-08-09T12:48:01.307Z,102221.56
2022-08-09T12:50:31.097Z,102210.84
2022-08-09T12:53:09.401Z,102210.91
2022-08-09T12:56:14.166Z,102213.06
2022-08-09T12:58:42.671Z,102215.25
2022-08-09T13:10:05.480Z,102201.59
2022-08-09T13:12:39.833Z,102192.75
2022-08-09T13:15:09.964Z,102194.06
2022-08-09T13:25:55.862Z,102188.25
2022-08-09T13:28:35.689Z,102198.34
2022-08-09T13:32:15.469Z,102187.84
2022-08-09T13:33:59.277Z,102197.00
2022-08-09T13:36:40.991Z,102203.63
2022-08-09T13:41:17.773Z,102190.13
2022-08-09T13:42:12.204Z,102186.47
2022-08-09T13:44:43.202Z,102185.91
2022-08-09T13:47:26.486Z,102191.63
2022-08-09T13:50:17.806Z,102183.34
2022-08-09T13:52:48.090Z,102186.47
2022-08-09T13:55:17.634Z,102185.28
2022-08-09T13:57:53.115Z,102191.63
2022-08-09T14:00:29.273Z,102193.66
2022-08-09T14:03:04.264Z,102182.69
2022-08-09T14:05:58.731Z,102186.97
2022-08-09T14:08:35.404Z,102181.19
2022-08-09T14:11:15.891Z,102177.09
2022-08-09T14:14:22.003Z,102173.19
2022-08-09T14:16:33.364Z,102166.38
2022-08-09T14:19:03.313Z,102160.72
2022-08-09T14:21:32.191Z,102170.03
2022-08-09T14:24:09.953Z,102170.34
2022-08-09T14:26:38.956Z,102168.34
2022-08-09T14:30:34.011Z,102170.38
2022-08-09T14:32:05.982Z,102169.44
2022-08-09T14:34:41.073Z,102165.66
2022-08-09T14:37:09.867Z,102173.44
2022-08-09T14:39:46.915Z,102173.50
2022-08-09T14:42:30.468Z,102177.44
2022-08-09T14:46:39.618Z,102170.81
2022-08-09T14:48:02.566Z,102176.09
2022-08-09T14:50:35.036Z,102181.81
2022-08-09T14:53:11.652Z,102179.00
2022-08-09T14:55:48.036Z,102185.19
2022-08-09T14:58:19.750Z,102183.94
2022-08-09T15:00:51.279Z,102182.41
2022-08-09T15:03:21.153Z,102180.69
2022-08-09T15:05:55.528Z,102177.97
2022-08-09T15:08:30.319Z,102176.84
2022-08-09T15:11:01.012Z,102184.94
2022-08-09T15:13:56.000Z,102175.53
2022-08-09T15:16:19.656Z,102178.72
2022-08-09T15:18:48.993Z,102178.06
2022-08-09T15:21:56.461Z,102183.84
2022-08-09T15:24:13.014Z,102183.19
2022-08-09T15:26:48.423Z,102181.50
2022-08-09T15:30:48.279Z,102177.00
2022-08-09T15:32:29.680Z,102185.34
2022-08-09T15:35:00.570Z,102173.22
2022-08-09T15:37:37.765Z,102175.69
2022-08-09T15:40:31.604Z,102171.13
2022-08-09T15:43:01.786Z,102172.44
2022-08-09T15:45:30.620Z,102170.53
2022-08-09T15:48:28.928Z,102169.47
2022-08-09T15:51:02.513Z,102164.94
2022-08-09T15:54:04.485Z,102168.19
2022-08-09T15:56:36.378Z,102172.28
2022-08-09T15:59:04.584Z,102162.72
2022-08-09T16:01:35.794Z,102158.72
2022-08-09T16:04:04.369Z,102167.00
2022-08-09T16:06:35.412Z,102165.63
2022-08-09T16:09:06.522Z,102164.94
2022-08-09T16:11:34.728Z,102155.88
2022-08-09T16:14:08.088Z,102158.16
2022-08-09T16:16:39.019Z,102158.22
2022-08-09T16:19:16.049Z,102160.22
2022-08-09T16:21:51.978Z,102157.88
2022-08-09T16:24:33.251Z,102156.13
2022-08-09T16:27:04.856Z,102156.53
2022-08-09T16:29:37.133Z,102161.28
2022-08-09T16:32:19.329Z,102157.63
2022-08-09T16:34:57.993Z,102163.03
2022-08-09T16:37:56.123Z,102155.38
2022-08-09T16:40:29.963Z,102155.19
2022-08-09T16:43:05.998Z,102155.09
2022-08-09T16:45:34.313Z,102155.06
2022-08-09T16:48:41.609Z,102147.53
2022-08-09T16:50:59.045Z,102146.16
2022-08-09T16:53:37.296Z,102150.09
2022-08-09T16:56:09.968Z,102146.91
2022-08-09T16:58:42.461Z,102150.59
2022-08-09T17:01:23.547Z,102159.44
2022-08-09T17:03:52.735Z,102151.94
2022-08-09T17:06:28.866Z,102148.72
2022-08-09T17:09:17.784Z,102159.13
2022-08-09T17:11:52.807Z,102165.00
2022-08-09T17:14:27.682Z,102167.09
2022-08-09T17:17:02.678Z,102167.91
2022-08-09T17:20:05.958Z,102162.34
2022-08-09T17:22:31.076Z,102165.50
2022-08-09T17:25:04.917Z,102165.03
2022-08-09T17:27:49.091Z,102167.91
2022-08-09T17:30:28.951Z,102169.00
2022-08-09T17:33:05.758Z,102171.88
2022-08-09T17:35:51.442Z,102177.06
2022-08-09T17:38:32.654Z,102181.88
2022-08-09T17:41:08.487Z,102178.97
2022-08-09T17:43:37.323Z,102181.50
2022-08-09T17:46:09.865Z,102182.69
2022-08-09T17:48:51.973Z,102185.84
2022-08-09T17:51:21.617Z,102186.25
2022-08-09T17:53:55.334Z,102186.63
2022-08-09T17:56:36.019Z,102187.41
2022-08-09T17:59:11.873Z,102185.88
2022-08-09T18:02:07.923Z,102193.81
2022-08-09T18:07:48.759Z,102193.44
2022-08-09T18:10:17.143Z,102199.44
2022-08-09T18:13:40.676Z,102199.31
2022-08-09T18:16:05.446Z,102192.97
2022-08-09T18:18:25.752Z,102205.66
2022-08-09T18:21:12.348Z,102205.22
2022-08-09T18:24:12.060Z,102214.91
2022-08-09T18:26:35.464Z,102208.59
2022-08-09T18:30:39.648Z,102217.16
2022-08-09T18:31:55.936Z,102216.28
2022-08-09T18:34:24.842Z,102224.34
2022-08-09T18:36:53.483Z,102219.66
2022-08-09T18:39:24.275Z,102228.41
2022-08-09T18:41:53.914Z,102232.34
2022-08-09T18:44:27.351Z,102225.09
2022-08-09T18:47:07.404Z,102230.69
2022-08-09T18:49:46.344Z,102242.25
2022-08-09T18:52:18.625Z,102244.75
2022-08-09T18:54:53.731Z,102244.25
2022-08-09T18:57:22.962Z,102240.91
2022-08-09T18:59:57.506Z,102244.56
2022-08-09T19:02:30.801Z,102243.06
2022-08-09T19:05:19.514Z,102244.63
2022-08-09T19:08:04.426Z,102255.22
2022-08-09T19:10:39.558Z,102266.91
2022-08-09T19:13:22.025Z,102262.03
2022-08-09T19:15:53.101Z,102254.41
2022-08-09T19:18:33.778Z,102261.34
2022-08-09T19:21:09.468Z,102263.81
2022-08-09T19:24:36.115Z,102259.69
2022-08-09T19:26:34.852Z,102267.59
2022-08-09T19:29:18.433Z,102271.50
2022-08-09T19:31:51.556Z,102272.50
2022-08-09T19:34:23.149Z,102271.81
2022-08-09T19:36:55.877Z,102266.19
2022-08-09T19:39:43.569Z,102273.72
2022-08-09T19:42:19.166Z,102276.63
2022-08-09T19:44:51.390Z,102282.44
2022-08-09T19:47:23.393Z,102286.97
2022-08-09T19:50:07.254Z,102273.56
2022-08-09T19:52:49.787Z,102286.53
2022-08-09T19:55:30.897Z,102286.38
2022-08-09T19:58:16.507Z,102286.63
2022-08-09T20:00:47.364Z,102284.81
2022-08-09T20:04:17.100Z,102289.38
2022-08-09T20:06:10.529Z,102291.53
2022-08-09T20:08:56.584Z,102286.84
2022-08-09T20:11:27.133Z,102289.91
2022-08-09T20:14:15.348Z,102294.25
2022-08-09T20:16:54.304Z,102291.84
2022-08-09T20:19:48.800Z,102294.72
2022-08-09T20:22:14.217Z,102297.00
2022-08-09T20:24:53.429Z,102305.06
2022-08-09T20:27:22.649Z,102300.94
2022-08-09T20:29:51.052Z,102300.50
2022-08-09T20:32:41.934Z,102298.50
2022-08-09T20:35:09.337Z,102302.81
2022-08-09T20:38:23.454Z,102298.94
2022-08-09T20:40:28.179Z,102291.09
2022-08-09T20:42:59.904Z,102295.34
2022-08-09T20:46:00.356Z,102296.88
2022-08-09T20:48:31.099Z,102303.19
2022-08-09T20:51:01.282Z,102298.94
2022-08-09T20:53:36.822Z,102292.25
2022-08-09T20:56:20.529Z,102301.09
2022-08-09T20:58:59.175Z,102303.81
2022-08-09T21:01:34.197Z,102304.56
2022-08-09T21:05:49.782Z,102306.00
2022-08-09T21:07:11.982Z,102306.34
2022-08-09T21:09:45.783Z,102309.91
2022-08-09T21:15:23.470Z,102314.28
2022-08-09T21:18:11.713Z,102314.38
2022-08-09T21:20:43.962Z,102317.09
2022-08-09T21:23:26.507Z,102317.13
2022-08-09T21:26:11.483Z,102321.53
2022-08-09T21:28:46.140Z,102322.88
2022-08-09T21:31:24.631Z,102321.03
2022-08-09T21:34:13.097Z,102315.28
2022-08-09T21:36:45.876Z,102323.88
2022-08-09T21:39:27.894Z,102319.22
2022-08-09T21:42:11.164Z,102324.75
2022-08-09T21:44:42.591Z,102327.84
2022-08-09T21:47:17.461Z,102319.28
2022-08-09T21:49:48.220Z,102321.09
2022-08-09T21:52:20.697Z,102316.84
2022-08-09T21:55:03.196Z,102322.09
2022-08-09T21:57:38.997Z,102325.91
2022-08-09T22:00:33.319Z,102325.50
2022-08-09T22:03:07.384Z,102321.53
2022-08-09T22:05:41.882Z,102324.88
2022-08-09T22:08:16.507Z,102327.94
2022-08-09T22:11:05.175Z,102322.78
2022-08-09T22:13:37.194Z,102330.19
2022-08-09T22:16:08.509Z,102328.69
2022-08-09T22:18:43.951Z,102325.97
2022-08-09T22:21:45.271Z,102332.97
2022-08-09T22:24:21.032Z,102325.44
2022-08-09T22:26:54.240Z,102331.09
2022-08-09T22:29:28.825Z,102337.53
2022-08-09T22:32:07.245Z,102334.84
2022-08-09T22:35:02.167Z,102337.44
2022-08-09T22:37:40.601Z,102333.16
2022-08-09T22:40:18.311Z,102326.19
2022-08-09T22:42:48.704Z,102328.66
2022-08-09T22:48:14.136Z,102323.94
2022-08-09T22:48:29.762Z,102332.50
2022-08-09T22:50:53.808Z,102339.16
2022-08-09T22:53:22.082Z,102336.09
2022-08-09T22:56:30.564Z,102333.75
2022-08-09T22:58:39.346Z,102338.69
2022-08-09T23:01:08.520Z,102332.44
2022-08-09T23:04:03.514Z,102334.69
2022-08-09T23:06:29.923Z,102333.75
2022-08-09T23:09:06.625Z,102338.94
2022-08-09T23:11:35.107Z,102345.75
2022-08-09T23:14:04.154Z,102337.25
2022-08-09T23:16:38.573Z,102341.28
2022-08-09T23:19:06.784Z,102336.91
2022-08-09T23:21:36.046Z,102333.94
2022-08-09T23:24:07.302Z,102342.00
2022-08-09T23:26:37.344Z,102338.97
2022-08-09T23:29:13.861Z,102332.03
2022-08-09T23:31:42.768Z,102338.28
2022-08-09T23:34:11.273Z,102342.63
2022-08-09T23:36:39.626Z,102344.13
2022-08-09T23:39:08.251Z,102341.97
2022-08-09T23:41:36.767Z,102340.25
2022-08-09T23:44:05.196Z,102338.19
2022-08-09T23:46:34.388Z,102335.72
2022-08-09T23:49:03.538Z,102332.75
2022-08-09T23:51:31.777Z,102337.78
2022-08-09T23:54:02.631Z,102332.72
2022-08-09T23:56:53.692Z,102331.63
2022-08-09T23:59:25.035Z,102335.81
